DFW Airport, Texas
Current Conditions -  °F | °C
As of 3:53 AM on Saturday 20 Dec 2014 (Local Time) from KDFW Reporting Station
Overcast Overcast  
Wind Chill:   Ceiling: 900
Heat Index:   Visibility: 10mi
Dew Point:   Wind: 5mph
Humidity: 86%   Direction: 350°N
Pressure: 30.21"   Gusts: NA
Location:  32.9°N, 97.03°W
Report Text: KDFW 200953Z 35004KT 10SM OVC009 08/06 A3021 RMK AO2 SLP229 T00780056
Loading
Personal Weather Stations






























Interactive Weather Map New forecast layout! Learn more

10-Day Weather Forecast

Advertisements
Track Severe Weather on mobile